Coloma, Indiana
Current Conditions -  °F | °C
As of 11:55 PM on Saturday 22 Nov 2014 (Local Time) from K4I7 Reporting Station
Light Rain Light Rain  
Wind Chill: 50°   Ceiling: 6500
Heat Index: 50°   Visibility: 7mi
Dew Point: 41°   Wind: 5mph
Humidity: 71%   Direction: 200°SSW
Pressure: 30"   Gusts: NA
Location:  39.7714°N, 87.1705°W
Report Text: K4I7 230455Z AUTO 20004KT 7SM -RA OVC065 10/05 A3000 RMK AO2 P0001
Loading
Personal Weather Stations






























Interactive Weather Map New forecast layout! Learn more

10-Day Weather Forecast

Advertisements
Track Severe Weather on mobile